createdAt,value
2017-01-07T00:00:02.536Z,0
2017-01-07T00:01:13.257Z,0
2017-01-07T00:02:23.980Z,0
2017-01-07T00:03:34.697Z,0
2017-01-07T00:04:45.392Z,0
2017-01-07T00:05:56.114Z,0
2017-01-07T00:07:06.838Z,0
2017-01-07T00:08:17.529Z,0
2017-01-07T00:09:28.245Z,0
2017-01-07T00:10:38.975Z,0
2017-01-07T00:11:49.698Z,0
2017-01-07T00:13:00.405Z,0
2017-01-07T00:14:11.134Z,0
2017-01-07T00:15:21.807Z,0
2017-01-07T00:16:32.526Z,0
2017-01-07T00:17:43.251Z,0
2017-01-07T00:18:53.947Z,0
2017-01-07T00:20:04.667Z,0
2017-01-07T00:21:15.388Z,0
2017-01-07T00:22:26.115Z,0
2017-01-07T00:23:36.829Z,0
2017-01-07T00:24:47.523Z,0
2017-01-07T00:25:58.273Z,0
2017-01-07T00:27:08.983Z,0
2017-01-07T00:28:19.691Z,0
2017-01-07T00:29:30.410Z,0
2017-01-07T00:30:41.132Z,0
2017-01-07T00:31:51.851Z,0
2017-01-07T00:33:02.573Z,0
2017-01-07T00:34:13.283Z,0
2017-01-07T00:35:24.029Z,0
2017-01-07T00:36:34.732Z,0
2017-01-07T00:37:45.424Z,0
2017-01-07T00:38:56.124Z,0
2017-01-07T00:40:06.824Z,0
2017-01-07T00:41:17.545Z,0
2017-01-07T00:42:28.268Z,0
2017-01-07T00:43:38.986Z,0
2017-01-07T00:44:49.730Z,0
2017-01-07T00:46:00.450Z,0
2017-01-07T00:47:11.174Z,0
2017-01-07T00:48:22.219Z,0
2017-01-07T00:49:32.913Z,0
2017-01-07T00:50:43.637Z,0
2017-01-07T00:51:54.360Z,0
2017-01-07T00:53:05.103Z,0
2017-01-07T00:54:15.820Z,0
2017-01-07T00:55:26.516Z,0
2017-01-07T00:56:37.241Z,0
2017-01-07T00:57:47.958Z,0
2017-01-07T00:58:58.657Z,0
2017-01-07T01:00:09.421Z,0
2017-01-07T01:01:20.124Z,0
2017-01-07T01:02:30.841Z,0
2017-01-07T01:03:41.537Z,0
2017-01-07T01:04:52.263Z,0
2017-01-07T01:06:03.007Z,0
2017-01-07T01:07:13.731Z,0
2017-01-07T01:08:24.451Z,0
2017-01-07T01:09:35.147Z,0
2017-01-07T01:10:45.892Z,0
2017-01-07T01:11:56.630Z,0
2017-01-07T01:13:07.334Z,0
2017-01-07T01:14:18.079Z,0
2017-01-07T01:15:28.789Z,0
2017-01-07T01:16:39.524Z,0
2017-01-07T01:17:50.247Z,0
2017-01-07T01:19:00.964Z,0
2017-01-07T01:20:11.680Z,0
2017-01-07T01:21:22.406Z,0
2017-01-07T01:22:33.126Z,0
2017-01-07T01:23:43.868Z,0
2017-01-07T01:24:54.582Z,0
2017-01-07T01:26:05.284Z,0
2017-01-07T01:27:15.960Z,0
2017-01-07T01:28:26.681Z,0
2017-01-07T01:29:37.402Z,0
2017-01-07T01:30:48.518Z,0
2017-01-07T01:31:59.214Z,0
2017-01-07T01:33:09.910Z,0
2017-01-07T01:34:20.606Z,0
2017-01-07T01:35:31.319Z,0
2017-01-07T01:36:42.047Z,0
2017-01-07T01:37:52.748Z,0
2017-01-07T01:39:03.468Z,0
2017-01-07T01:40:14.188Z,0
2017-01-07T01:41:24.890Z,0
2017-01-07T01:42:35.610Z,0
2017-01-07T01:43:46.348Z,0
2017-01-07T01:44:57.071Z,0
2017-01-07T01:46:07.768Z,0
2017-01-07T01:47:18.515Z,0
2017-01-07T01:48:29.252Z,0
2017-01-07T01:49:39.955Z,0
2017-01-07T01:50:50.653Z,0
2017-01-07T01:52:01.349Z,0
2017-01-07T01:53:12.065Z,0
2017-01-07T01:54:22.792Z,0
2017-01-07T01:55:33.502Z,0
2017-01-07T01:56:44.202Z,0
2017-01-07T01:57:54.926Z,0
2017-01-07T01:59:05.648Z,0
2017-01-07T02:00:16.397Z,0
2017-01-07T02:01:27.116Z,0
2017-01-07T02:02:37.836Z,0
2017-01-07T02:03:48.585Z,0
2017-01-07T02:04:59.305Z,0
2017-01-07T02:06:10.026Z,0
2017-01-07T02:07:20.750Z,0
2017-01-07T02:08:31.484Z,0
2017-01-07T02:09:42.183Z,0
2017-01-07T02:10:52.929Z,0
2017-01-07T02:12:03.642Z,0
2017-01-07T02:13:14.346Z,0
2017-01-07T02:14:25.072Z,0
2017-01-07T02:15:35.788Z,0
2017-01-07T02:16:46.488Z,0
2017-01-07T02:17:57.226Z,0
2017-01-07T02:19:08.346Z,0
2017-01-07T02:20:19.072Z,0
2017-01-07T02:21:29.773Z,0
2017-01-07T02:22:40.497Z,0
2017-01-07T02:23:51.214Z,0
2017-01-07T02:25:01.981Z,0
2017-01-07T02:26:12.681Z,0
2017-01-07T02:27:23.399Z,0
2017-01-07T02:28:34.119Z,0
2017-01-07T02:29:44.820Z,0
2017-01-07T02:30:55.564Z,0
2017-01-07T02:32:06.307Z,0
2017-01-07T02:33:17.003Z,0
2017-01-07T02:34:27.703Z,0
2017-01-07T02:35:38.419Z,0
2017-01-07T02:36:49.115Z,0
2017-01-07T02:37:59.838Z,0
2017-01-07T02:39:10.535Z,0
2017-01-07T02:40:21.261Z,0
2017-01-07T02:41:31.977Z,0
2017-01-07T02:42:43.072Z,0
2017-01-07T02:43:54.176Z,0
2017-01-07T02:45:04.890Z,0
2017-01-07T02:46:15.583Z,0
2017-01-07T02:47:26.284Z,0
2017-01-07T02:48:37.377Z,0
2017-01-07T02:49:48.096Z,0
2017-01-07T02:50:58.817Z,0
2017-01-07T02:52:09.538Z,0
2017-01-07T02:53:20.212Z,0
2017-01-07T02:54:30.940Z,0
2017-01-07T02:55:41.657Z,0
2017-01-07T02:56:52.364Z,0
2017-01-07T02:58:03.084Z,0
2017-01-07T02:59:13.817Z,0
2017-01-07T03:00:24.555Z,0
2017-01-07T03:01:35.255Z,0
2017-01-07T03:02:45.979Z,0
2017-01-07T03:03:56.690Z,0
2017-01-07T03:05:07.393Z,0
2017-01-07T03:06:18.142Z,0
2017-01-07T03:07:28.852Z,0
2017-01-07T03:08:39.585Z,0
2017-01-07T03:09:50.305Z,0
2017-01-07T03:11:00.998Z,0
2017-01-07T03:12:11.714Z,0
2017-01-07T03:13:22.440Z,0
2017-01-07T03:14:33.161Z,0
2017-01-07T03:15:43.882Z,0
2017-01-07T03:16:54.581Z,0
2017-01-07T03:18:05.682Z,0
2017-01-07T03:19:16.400Z,0
2017-01-07T03:20:27.120Z,0
2017-01-07T03:21:37.837Z,0
2017-01-07T03:22:48.541Z,0
2017-01-07T03:23:59.282Z,0
2017-01-07T03:25:09.996Z,0
2017-01-07T03:26:20.696Z,0
2017-01-07T03:27:31.396Z,0
2017-01-07T03:28:42.113Z,0
2017-01-07T03:29:52.838Z,0
2017-01-07T03:31:03.572Z,0
2017-01-07T03:32:14.301Z,0
2017-01-07T03:33:25.002Z,0
2017-01-07T03:34:35.722Z,0
2017-01-07T03:35:46.465Z,0
2017-01-07T03:36:57.160Z,0
2017-01-07T03:38:07.865Z,0
2017-01-07T03:39:18.577Z,0
2017-01-07T03:40:29.283Z,0
2017-01-07T03:41:39.997Z,0
2017-01-07T03:42:50.725Z,0
2017-01-07T03:44:01.439Z,0
2017-01-07T03:45:12.158Z,0
2017-01-07T03:46:22.859Z,0
2017-01-07T03:47:33.584Z,0
2017-01-07T03:48:44.297Z,0
2017-01-07T03:49:55.422Z,0
2017-01-07T03:51:06.142Z,0
2017-01-07T03:52:16.835Z,0
2017-01-07T03:53:27.551Z,0
2017-01-07T03:54:38.252Z,0
2017-01-07T03:55:48.953Z,0
2017-01-07T03:56:59.679Z,0
2017-01-07T03:58:10.392Z,0
2017-01-07T03:59:21.105Z,0
2017-01-07T04:00:31.813Z,0
2017-01-07T04:01:42.524Z,0
2017-01-07T04:02:53.227Z,0
2017-01-07T04:04:03.921Z,0
2017-01-07T04:05:14.617Z,0
2017-01-07T04:06:25.343Z,0
2017-01-07T04:07:36.087Z,0
2017-01-07T04:08:46.806Z,0
2017-01-07T04:09:57.506Z,0
2017-01-07T04:11:08.218Z,0
2017-01-07T04:12:18.922Z,0
2017-01-07T04:13:29.619Z,0
2017-01-07T04:14:40.340Z,0
2017-01-07T04:15:51.057Z,0
2017-01-07T04:17:01.781Z,0
2017-01-07T04:18:12.527Z,0
2017-01-07T04:19:23.250Z,0
2017-01-07T04:20:33.969Z,0
2017-01-07T04:21:44.670Z,0
2017-01-07T04:22:55.384Z,0
2017-01-07T04:24:06.104Z,0
2017-01-07T04:25:16.803Z,0
2017-01-07T04:26:27.526Z,0
2017-01-07T04:27:38.243Z,0
2017-01-07T04:28:48.940Z,0
2017-01-07T04:29:59.664Z,0
2017-01-07T04:31:10.385Z,0
2017-01-07T04:32:21.102Z,0
2017-01-07T04:33:31.810Z,0
2017-01-07T04:34:42.919Z,0
2017-01-07T04:35:53.644Z,0
2017-01-07T04:37:04.337Z,0
2017-01-07T04:38:15.049Z,0
2017-01-07T04:39:25.782Z,0
2017-01-07T04:40:36.500Z,0
2017-01-07T04:41:47.196Z,0
2017-01-07T04:42:57.897Z,0
2017-01-07T04:44:08.592Z,0
2017-01-07T04:45:19.313Z,0
2017-01-07T04:46:30.034Z,0
2017-01-07T04:47:40.752Z,0
2017-01-07T04:48:51.448Z,0
2017-01-07T04:50:02.169Z,0
2017-01-07T04:51:12.915Z,0
2017-01-07T04:52:23.639Z,0
2017-01-07T04:53:34.362Z,0
2017-01-07T04:54:45.083Z,0
2017-01-07T04:55:55.809Z,0
2017-01-07T04:57:06.524Z,0
2017-01-07T04:58:17.266Z,0
2017-01-07T04:59:27.992Z,0
2017-01-07T05:00:38.733Z,0
2017-01-07T05:01:49.460Z,0
2017-01-07T05:03:00.168Z,0
2017-01-07T05:04:10.896Z,0
2017-01-07T05:05:21.621Z,0
2017-01-07T05:06:32.339Z,0
2017-01-07T05:07:43.038Z,0
2017-01-07T05:08:53.785Z,0
2017-01-07T05:10:04.503Z,0
2017-01-07T05:11:15.228Z,0
2017-01-07T05:12:25.965Z,0
2017-01-07T05:13:36.669Z,0
2017-01-07T05:14:47.383Z,0
2017-01-07T05:15:58.112Z,0
2017-01-07T05:17:08.833Z,0
2017-01-07T05:18:19.553Z,0
2017-01-07T05:19:30.300Z,0
2017-01-07T05:20:41.021Z,0
2017-01-07T05:21:51.742Z,0
2017-01-07T05:23:02.463Z,0
2017-01-07T05:24:13.205Z,0
2017-01-07T05:25:23.943Z,0
2017-01-07T05:26:34.675Z,0
2017-01-07T05:27:45.368Z,0
2017-01-07T05:28:56.081Z,0
2017-01-07T05:30:06.784Z,0
2017-01-07T05:31:17.480Z,0
2017-01-07T05:32:28.181Z,0
2017-01-07T05:33:38.902Z,0
2017-01-07T05:34:49.622Z,0
2017-01-07T05:36:00.340Z,0
2017-01-07T05:37:11.064Z,0
2017-01-07T05:38:21.784Z,0
2017-01-07T05:39:32.535Z,0
2017-01-07T05:40:43.273Z,0
2017-01-07T05:41:54.019Z,0
2017-01-07T05:43:04.721Z,0
2017-01-07T05:44:15.415Z,0
2017-01-07T05:45:26.132Z,0
2017-01-07T05:46:36.858Z,0
2017-01-07T05:47:47.604Z,0
2017-01-07T05:48:58.324Z,0
2017-01-07T05:50:09.042Z,0
2017-01-07T05:51:19.758Z,0
2017-01-07T05:52:30.858Z,0
2017-01-07T05:53:41.560Z,0
2017-01-07T05:54:52.275Z,0
2017-01-07T05:56:02.973Z,0
2017-01-07T05:57:13.684Z,0
2017-01-07T05:58:24.391Z,0
2017-01-07T05:59:35.109Z,0
2017-01-07T06:00:45.834Z,0
2017-01-07T06:01:56.951Z,0
2017-01-07T06:03:07.650Z,0
2017-01-07T06:04:18.378Z,0
2017-01-07T06:05:29.096Z,0
2017-01-07T06:06:39.814Z,0
2017-01-07T06:07:50.537Z,0
2017-01-07T06:09:01.271Z,0
2017-01-07T06:10:12.007Z,0
2017-01-07T06:11:22.745Z,0
2017-01-07T06:12:33.441Z,0
2017-01-07T06:13:44.140Z,0
2017-01-07T06:14:54.808Z,0
2017-01-07T06:16:05.532Z,0
2017-01-07T06:17:16.275Z,0
2017-01-07T06:18:26.977Z,0
2017-01-07T06:19:37.724Z,0
2017-01-07T06:20:48.463Z,0
2017-01-07T06:21:59.189Z,0
2017-01-07T06:23:09.908Z,0
2017-01-07T06:24:20.627Z,0
2017-01-07T06:25:31.351Z,0
2017-01-07T06:26:42.089Z,0
2017-01-07T06:27:52.789Z,0
2017-01-07T06:29:03.488Z,0
2017-01-07T06:30:14.213Z,0
2017-01-07T06:31:24.908Z,0
2017-01-07T06:32:35.653Z,0
2017-01-07T06:33:46.369Z,0
2017-01-07T06:34:57.065Z,0
2017-01-07T06:36:07.791Z,4
2017-01-07T06:37:18.514Z,0
2017-01-07T06:38:29.228Z,0
2017-01-07T06:39:39.929Z,4
2017-01-07T06:40:50.648Z,0
2017-01-07T06:42:01.374Z,4
2017-01-07T06:43:12.116Z,4
2017-01-07T06:44:22.875Z,4
2017-01-07T06:45:33.606Z,4
2017-01-07T06:46:44.328Z,8
2017-01-07T06:47:55.070Z,8
2017-01-07T06:49:05.767Z,8
2017-01-07T06:50:16.484Z,12
2017-01-07T06:51:27.231Z,12
2017-01-07T06:52:37.929Z,16
2017-01-07T06:53:48.628Z,20
2017-01-07T06:54:59.324Z,20
2017-01-07T06:56:10.062Z,24
2017-01-07T06:57:21.139Z,28
2017-01-07T06:58:31.838Z,32
2017-01-07T06:59:42.535Z,36
2017-01-07T07:00:53.272Z,36
2017-01-07T07:02:03.997Z,48
2017-01-07T07:03:14.697Z,56
2017-01-07T07:04:25.442Z,60
2017-01-07T07:05:36.185Z,72
2017-01-07T07:06:46.885Z,80
2017-01-07T07:07:57.594Z,88
2017-01-07T07:09:08.307Z,100
2017-01-07T07:10:19.043Z,112
2017-01-07T07:11:29.757Z,128
2017-01-07T07:12:40.462Z,140
2017-01-07T07:13:51.182Z,148
2017-01-07T07:15:01.878Z,160
2017-01-07T07:16:12.577Z,172
2017-01-07T07:17:23.288Z,184
2017-01-07T07:18:33.991Z,204
2017-01-07T07:19:44.690Z,216
2017-01-07T07:20:55.390Z,228
2017-01-07T07:22:06.107Z,236
2017-01-07T07:23:16.849Z,248
2017-01-07T07:24:27.566Z,264
2017-01-07T07:25:38.267Z,280
2017-01-07T07:26:48.979Z,300
2017-01-07T07:27:59.712Z,316
2017-01-07T07:29:10.429Z,336
2017-01-07T07:30:21.143Z,364
2017-01-07T07:31:31.874Z,396
2017-01-07T07:32:42.622Z,428
2017-01-07T07:33:53.321Z,468
2017-01-07T07:35:04.035Z,500
2017-01-07T07:36:14.760Z,536
2017-01-07T07:37:25.483Z,572
2017-01-07T07:38:36.215Z,600
2017-01-07T07:39:46.924Z,612
2017-01-07T07:40:57.657Z,628
2017-01-07T07:42:08.366Z,644
2017-01-07T07:43:19.061Z,664
2017-01-07T07:44:29.778Z,688
2017-01-07T07:45:40.507Z,724
2017-01-07T07:46:51.245Z,768
2017-01-07T07:48:01.941Z,816
2017-01-07T07:49:12.639Z,856
2017-01-07T07:50:23.354Z,896
2017-01-07T07:51:34.058Z,940
2017-01-07T07:52:44.779Z,1000
2017-01-07T07:53:55.499Z,1080
2017-01-07T07:55:06.259Z,1156
2017-01-07T07:56:16.959Z,1216
2017-01-07T07:57:27.683Z,1268
2017-01-07T07:58:38.405Z,1328
2017-01-07T07:59:49.104Z,1396
2017-01-07T08:00:59.875Z,1452
2017-01-07T08:02:10.611Z,1504
2017-01-07T08:03:21.292Z,1564
2017-01-07T08:04:31.988Z,1640
2017-01-07T08:05:42.730Z,1700
2017-01-07T08:06:53.451Z,1736
2017-01-07T08:08:04.172Z,1768
2017-01-07T08:09:14.873Z,1804
2017-01-07T08:10:25.618Z,1832
2017-01-07T08:11:36.343Z,1872
2017-01-07T08:12:47.088Z,1920
2017-01-07T08:13:57.820Z,1968
2017-01-07T08:15:08.526Z,2020
2017-01-07T08:16:19.244Z,2060
2017-01-07T08:17:29.945Z,2092
2017-01-07T08:18:40.660Z,2132
2017-01-07T08:19:51.356Z,2168
2017-01-07T08:21:02.053Z,2200
2017-01-07T08:22:12.776Z,2244
2017-01-07T08:23:23.497Z,2300
2017-01-07T08:24:34.193Z,2348
2017-01-07T08:25:44.911Z,2396
2017-01-07T08:26:55.610Z,2440
2017-01-07T08:28:06.328Z,2456
2017-01-07T08:29:17.050Z,2448
2017-01-07T08:30:27.744Z,2444
2017-01-07T08:31:38.489Z,2432
2017-01-07T08:32:49.614Z,2428
2017-01-07T08:34:00.336Z,2432
2017-01-07T08:35:11.071Z,2456
2017-01-07T08:36:22.166Z,2520
2017-01-07T08:37:32.898Z,2612
2017-01-07T08:38:43.616Z,2712
2017-01-07T08:39:54.308Z,2808
2017-01-07T08:41:05.032Z,2852
2017-01-07T08:42:15.753Z,2856
2017-01-07T08:43:26.449Z,2864
2017-01-07T08:44:37.166Z,2904
2017-01-07T08:45:47.870Z,2940
2017-01-07T08:46:58.588Z,2964
2017-01-07T08:48:09.287Z,3024
2017-01-07T08:49:20.006Z,3128
2017-01-07T08:50:30.727Z,3264
2017-01-07T08:51:41.448Z,3412
2017-01-07T08:52:52.170Z,3568
2017-01-07T08:54:02.929Z,3692
2017-01-07T08:55:13.636Z,3752
2017-01-07T08:56:24.369Z,3784
2017-01-07T08:57:35.098Z,3828
2017-01-07T08:58:45.822Z,3864
2017-01-07T08:59:56.543Z,3888
2017-01-07T09:01:07.310Z,3932
2017-01-07T09:02:18.031Z,3948
2017-01-07T09:03:28.755Z,3928
2017-01-07T09:04:39.491Z,3920
2017-01-07T09:05:50.236Z,3940
2017-01-07T09:07:00.968Z,3944
2017-01-07T09:08:11.666Z,3960
2017-01-07T09:09:22.381Z,4032
2017-01-07T09:10:33.106Z,4128
2017-01-07T09:11:43.826Z,4216
2017-01-07T09:12:54.543Z,4324
2017-01-07T09:14:05.264Z,4436
2017-01-07T09:15:15.985Z,4496
2017-01-07T09:16:26.710Z,4528
2017-01-07T09:17:37.451Z,4552
2017-01-07T09:18:48.175Z,4560
2017-01-07T09:19:58.893Z,4624
2017-01-07T09:21:09.593Z,4748
2017-01-07T09:22:20.310Z,4880
2017-01-07T09:23:31.030Z,4988
2017-01-07T09:24:41.726Z,5008
2017-01-07T09:25:52.427Z,4952
2017-01-07T09:27:03.147Z,4960
2017-01-07T09:28:13.863Z,5068
2017-01-07T09:29:24.603Z,5232
2017-01-07T09:30:35.310Z,5364
2017-01-07T09:31:46.051Z,5428
2017-01-07T09:32:56.748Z,5480
2017-01-07T09:34:07.473Z,5492
2017-01-07T09:35:18.164Z,5416
2017-01-07T09:36:28.864Z,5344
2017-01-07T09:37:39.566Z,5388
2017-01-07T09:38:50.302Z,5632
2017-01-07T09:40:00.999Z,5884
2017-01-07T09:41:11.728Z,6056
2017-01-07T09:42:22.457Z,6180
2017-01-07T09:43:33.160Z,6236
2017-01-07T09:44:43.874Z,6296
2017-01-07T09:45:54.577Z,6448
2017-01-07T09:47:05.273Z,6588
2017-01-07T09:48:15.997Z,6628
2017-01-07T09:49:26.744Z,6540
2017-01-07T09:50:37.472Z,6300
2017-01-07T09:51:48.181Z,5968
2017-01-07T09:52:58.884Z,5708
2017-01-07T09:54:09.628Z,5576
2017-01-07T09:55:20.345Z,5532
2017-01-07T09:56:31.066Z,5584
2017-01-07T09:57:41.761Z,5692
2017-01-07T09:58:52.483Z,5792
2017-01-07T10:00:03.204Z,5780
2017-01-07T10:01:13.902Z,5724
2017-01-07T10:02:24.624Z,5808
2017-01-07T10:03:35.366Z,5980
2017-01-07T10:04:46.065Z,6100
2017-01-07T10:05:56.763Z,6140
2017-01-07T10:07:07.480Z,6040
2017-01-07T10:08:18.204Z,5876
2017-01-07T10:09:28.946Z,5760
2017-01-07T10:10:39.642Z,5572
2017-01-07T10:11:50.342Z,5384
2017-01-07T10:13:01.038Z,5308
2017-01-07T10:14:11.776Z,5360
2017-01-07T10:15:22.509Z,5448
2017-01-07T10:16:33.225Z,5508
2017-01-07T10:17:43.945Z,5552
2017-01-07T10:18:54.665Z,5656
2017-01-07T10:20:05.385Z,5780
2017-01-07T10:21:16.106Z,5836
2017-01-07T10:22:26.806Z,5872
2017-01-07T10:23:37.526Z,6024
2017-01-07T10:24:48.262Z,6380
2017-01-07T10:25:58.989Z,6860
2017-01-07T10:27:10.085Z,7248
2017-01-07T10:28:20.810Z,7500
2017-01-07T10:29:31.530Z,7640
2017-01-07T10:30:42.241Z,7736
2017-01-07T10:31:52.962Z,7792
2017-01-07T10:33:03.693Z,7820
2017-01-07T10:34:14.440Z,7832
2017-01-07T10:35:25.157Z,7788
2017-01-07T10:36:35.857Z,7688
2017-01-07T10:37:46.620Z,7492
2017-01-07T10:38:57.325Z,7308
2017-01-07T10:40:08.041Z,7248
2017-01-07T10:41:18.740Z,7292
2017-01-07T10:42:29.460Z,7372
2017-01-07T10:43:40.180Z,7468
2017-01-07T10:44:50.922Z,7480
2017-01-07T10:46:01.629Z,7392
2017-01-07T10:47:12.372Z,7240
2017-01-07T10:48:23.105Z,7076
2017-01-07T10:49:33.838Z,6792
2017-01-07T10:50:44.559Z,6324
2017-01-07T10:51:55.258Z,5824
2017-01-07T10:53:06.001Z,5504
2017-01-07T10:54:16.730Z,5440
2017-01-07T10:55:27.443Z,5464
2017-01-07T10:56:38.137Z,5452
2017-01-07T10:57:48.866Z,5420
2017-01-07T10:58:59.584Z,5372
2017-01-07T11:00:10.331Z,5360
2017-01-07T11:01:21.046Z,5424
2017-01-07T11:02:31.770Z,5516
2017-01-07T11:03:42.513Z,5576
2017-01-07T11:04:53.244Z,5552
2017-01-07T11:06:03.960Z,5476
2017-01-07T11:07:14.702Z,5340
2017-01-07T11:08:25.401Z,5176
2017-01-07T11:09:36.136Z,5064
2017-01-07T11:10:46.843Z,5004
2017-01-07T11:11:57.561Z,5000
2017-01-07T11:13:08.282Z,5036
2017-01-07T11:14:19.003Z,5072
2017-01-07T11:15:29.717Z,5100
2017-01-07T11:16:40.420Z,5068
2017-01-07T11:17:51.144Z,5000
2017-01-07T11:19:01.859Z,4952
2017-01-07T11:20:12.576Z,4956
2017-01-07T11:21:23.301Z,4952
2017-01-07T11:22:33.976Z,4932
2017-01-07T11:23:44.672Z,4960
2017-01-07T11:24:55.378Z,4964
2017-01-07T11:26:06.093Z,4936
2017-01-07T11:27:16.838Z,4932
2017-01-07T11:28:27.581Z,4824
2017-01-07T11:29:38.324Z,4736
2017-01-07T11:30:49.054Z,4740
2017-01-07T11:32:00.150Z,4724
2017-01-07T11:33:10.894Z,4644
2017-01-07T11:34:21.615Z,4496
2017-01-07T11:35:32.311Z,4348
2017-01-07T11:36:43.033Z,4336
2017-01-07T11:37:53.751Z,4436
2017-01-07T11:39:04.446Z,4552
2017-01-07T11:40:15.171Z,4672
2017-01-07T11:41:25.913Z,4864
2017-01-07T11:42:36.640Z,5116
2017-01-07T11:43:47.363Z,5468
2017-01-07T11:44:58.077Z,5852
2017-01-07T11:46:08.801Z,6044
2017-01-07T11:47:19.521Z,6004
2017-01-07T11:48:30.239Z,5900
2017-01-07T11:49:40.960Z,5836
2017-01-07T11:50:51.685Z,5816
2017-01-07T11:52:02.405Z,5800
2017-01-07T11:53:13.144Z,5820
2017-01-07T11:54:23.866Z,5812
2017-01-07T11:55:34.550Z,5800
2017-01-07T11:56:45.283Z,5784
2017-01-07T11:57:56.000Z,5808
2017-01-07T11:59:06.737Z,5796
2017-01-07T12:00:17.455Z,5780
2017-01-07T12:01:28.196Z,5796
2017-01-07T12:02:38.921Z,5728
2017-01-07T12:03:49.664Z,5624
2017-01-07T12:05:00.385Z,5508
2017-01-07T12:06:11.084Z,5456
2017-01-07T12:07:21.780Z,5368
2017-01-07T12:08:32.523Z,5260
2017-01-07T12:09:43.237Z,5160
2017-01-07T12:10:53.996Z,5100
2017-01-07T12:12:04.690Z,5084
2017-01-07T12:13:15.451Z,5084
2017-01-07T12:14:26.204Z,5036
2017-01-07T12:15:36.925Z,4904
2017-01-07T12:16:47.641Z,4708
2017-01-07T12:17:58.370Z,4568
2017-01-07T12:19:09.091Z,4524
2017-01-07T12:20:19.790Z,4544
2017-01-07T12:21:30.512Z,4472
2017-01-07T12:22:41.253Z,4484
2017-01-07T12:23:52.002Z,4480
2017-01-07T12:25:02.748Z,4488
2017-01-07T12:26:13.469Z,4368
2017-01-07T12:27:24.211Z,4288
2017-01-07T12:28:34.935Z,4204
2017-01-07T12:29:45.671Z,4132
2017-01-07T12:30:56.410Z,4076
2017-01-07T12:32:07.145Z,4040
2017-01-07T12:33:17.866Z,3920
2017-01-07T12:34:28.606Z,3800
2017-01-07T12:35:39.334Z,3680
2017-01-07T12:36:50.060Z,3528
2017-01-07T12:38:00.771Z,3512
2017-01-07T12:39:11.501Z,3556
2017-01-07T12:40:22.225Z,3644
2017-01-07T12:41:32.964Z,3668
2017-01-07T12:42:43.685Z,3640
2017-01-07T12:43:54.413Z,3476
2017-01-07T12:45:05.106Z,3308
2017-01-07T12:46:16.251Z,3280
2017-01-07T12:47:27.003Z,3344
2017-01-07T12:48:37.718Z,3492
2017-01-07T12:49:48.461Z,3564
2017-01-07T12:50:59.189Z,3616
2017-01-07T12:52:09.931Z,3640
2017-01-07T12:53:20.653Z,3616
2017-01-07T12:54:31.404Z,3576
2017-01-07T12:55:42.117Z,3412
2017-01-07T12:56:52.855Z,3208
2017-01-07T12:58:03.601Z,2968
2017-01-07T12:59:14.305Z,2888
2017-01-07T13:00:25.051Z,2992
2017-01-07T13:01:35.782Z,3136
2017-01-07T13:02:46.524Z,3304
2017-01-07T13:03:57.256Z,3416
2017-01-07T13:05:07.989Z,3568
2017-01-07T13:06:18.765Z,3708
2017-01-07T13:07:29.495Z,3768
2017-01-07T13:08:40.227Z,3872
2017-01-07T13:09:50.949Z,3936
2017-01-07T13:11:01.665Z,3868
2017-01-07T13:12:12.389Z,3644
2017-01-07T13:13:23.117Z,3504
2017-01-07T13:14:33.836Z,3348
2017-01-07T13:15:44.575Z,3236
2017-01-07T13:16:55.276Z,3172
2017-01-07T13:18:06.001Z,3140
2017-01-07T13:19:16.765Z,3080
2017-01-07T13:20:27.480Z,2916
2017-01-07T13:21:38.184Z,2720
2017-01-07T13:22:48.906Z,2544
2017-01-07T13:23:59.672Z,2312
2017-01-07T13:25:10.415Z,2120
2017-01-07T13:26:21.142Z,2136
2017-01-07T13:27:31.881Z,2148
2017-01-07T13:28:42.606Z,2224
2017-01-07T13:29:53.307Z,2248
2017-01-07T13:31:04.040Z,2168
2017-01-07T13:32:14.769Z,1928
2017-01-07T13:33:25.471Z,1768
2017-01-07T13:34:36.212Z,1660
2017-01-07T13:35:46.932Z,1528
2017-01-07T13:36:57.633Z,1456
2017-01-07T13:38:08.378Z,1448
2017-01-07T13:39:19.120Z,1400
2017-01-07T13:40:29.822Z,1352
2017-01-07T13:41:40.538Z,1332
2017-01-07T13:42:51.262Z,1288
2017-01-07T13:44:01.980Z,1272
2017-01-07T13:45:12.676Z,1268
2017-01-07T13:46:23.393Z,1296
2017-01-07T13:47:34.114Z,1320
2017-01-07T13:48:44.833Z,1340
2017-01-07T13:49:55.556Z,1420
2017-01-07T13:51:06.263Z,1532
2017-01-07T13:52:16.999Z,1632
2017-01-07T13:53:27.698Z,1844
2017-01-07T13:54:38.399Z,2104
2017-01-07T13:55:49.125Z,2324
2017-01-07T13:56:59.836Z,2544
2017-01-07T13:58:10.554Z,2636
2017-01-07T13:59:21.282Z,2680
2017-01-07T14:00:32.025Z,2624
2017-01-07T14:01:42.750Z,2680
2017-01-07T14:02:53.470Z,2660
2017-01-07T14:04:04.163Z,2612
2017-01-07T14:05:14.862Z,2564
2017-01-07T14:06:25.589Z,2472
2017-01-07T14:07:36.300Z,2332
2017-01-07T14:08:47.025Z,2160
2017-01-07T14:09:57.749Z,2044
2017-01-07T14:11:08.467Z,1972
2017-01-07T14:12:19.185Z,1936
2017-01-07T14:13:29.909Z,1928
2017-01-07T14:14:40.655Z,1916
2017-01-07T14:15:51.366Z,1900
2017-01-07T14:17:02.097Z,1848
2017-01-07T14:18:12.819Z,1824
2017-01-07T14:19:23.917Z,1792
2017-01-07T14:20:34.636Z,1772
2017-01-07T14:21:45.353Z,1760
2017-01-07T14:22:56.054Z,1728
2017-01-07T14:24:06.798Z,1632
2017-01-07T14:25:17.516Z,1508
2017-01-07T14:26:28.240Z,1356
2017-01-07T14:27:38.983Z,1176
2017-01-07T14:28:49.707Z,928
2017-01-07T14:30:00.425Z,760
2017-01-07T14:31:11.146Z,700
2017-01-07T14:32:21.889Z,708
2017-01-07T14:33:32.588Z,744
2017-01-07T14:34:43.314Z,712
2017-01-07T14:35:54.030Z,700
2017-01-07T14:37:04.726Z,676
2017-01-07T14:38:15.451Z,692
2017-01-07T14:39:26.189Z,732
2017-01-07T14:40:36.914Z,760
2017-01-07T14:41:47.636Z,728
2017-01-07T14:42:58.335Z,648
2017-01-07T14:44:09.077Z,596
2017-01-07T14:45:19.823Z,560
2017-01-07T14:46:30.548Z,552
2017-01-07T14:47:41.268Z,504
2017-01-07T14:48:51.986Z,456
2017-01-07T14:50:02.703Z,428
2017-01-07T14:51:13.407Z,408
2017-01-07T14:52:24.124Z,388
2017-01-07T14:53:34.849Z,356
2017-01-07T14:54:45.599Z,332
2017-01-07T14:55:56.341Z,312
2017-01-07T14:57:07.090Z,292
2017-01-07T14:58:17.813Z,264
2017-01-07T14:59:28.528Z,240
2017-01-07T15:00:39.274Z,216
2017-01-07T15:01:49.967Z,192
2017-01-07T15:03:00.667Z,172
2017-01-07T15:04:11.367Z,156
2017-01-07T15:05:22.088Z,144
2017-01-07T15:06:33.209Z,132
2017-01-07T15:07:43.922Z,124
2017-01-07T15:08:54.623Z,112
2017-01-07T15:10:05.316Z,104
2017-01-07T15:11:16.038Z,96
2017-01-07T15:12:26.734Z,88
2017-01-07T15:13:37.480Z,84
2017-01-07T15:14:48.202Z,72
2017-01-07T15:15:58.936Z,64
2017-01-07T15:17:09.669Z,60
2017-01-07T15:18:20.414Z,56
2017-01-07T15:19:31.136Z,48
2017-01-07T15:20:41.832Z,40
2017-01-07T15:21:52.554Z,36
2017-01-07T15:23:03.288Z,32
2017-01-07T15:24:13.993Z,28
2017-01-07T15:25:25.116Z,20
2017-01-07T15:26:35.853Z,16
2017-01-07T15:27:46.579Z,16
2017-01-07T15:28:57.320Z,16
2017-01-07T15:30:08.047Z,12
2017-01-07T15:31:18.766Z,12
2017-01-07T15:32:29.469Z,12
2017-01-07T15:33:40.236Z,8
2017-01-07T15:34:50.956Z,8
2017-01-07T15:36:01.675Z,4
2017-01-07T15:37:12.399Z,8
2017-01-07T15:38:23.119Z,4
2017-01-07T15:39:33.837Z,4
2017-01-07T15:40:44.549Z,4
2017-01-07T15:41:55.257Z,4
2017-01-07T15:43:05.974Z,4
2017-01-07T15:44:16.709Z,4
2017-01-07T15:45:27.446Z,0
2017-01-07T15:46:38.161Z,0
2017-01-07T15:47:48.868Z,0
2017-01-07T15:48:59.581Z,0
2017-01-07T15:50:10.303Z,0
2017-01-07T15:51:21.423Z,0
2017-01-07T15:52:32.195Z,0
2017-01-07T15:53:42.911Z,0
2017-01-07T15:54:53.634Z,0
2017-01-07T15:56:04.783Z,0
2017-01-07T15:57:15.528Z,0
2017-01-07T15:58:26.247Z,0
2017-01-07T15:59:36.969Z,0
2017-01-07T16:00:47.686Z,0
2017-01-07T16:01:58.387Z,0
2017-01-07T16:03:09.103Z,0
2017-01-07T16:04:19.829Z,0
2017-01-07T16:05:30.549Z,0
2017-01-07T16:06:41.295Z,0
2017-01-07T16:07:52.061Z,0
2017-01-07T16:09:02.765Z,0
2017-01-07T16:10:13.484Z,0
2017-01-07T16:11:24.206Z,0
2017-01-07T16:12:34.921Z,0
2017-01-07T16:13:45.641Z,0
2017-01-07T16:14:56.340Z,0
2017-01-07T16:16:07.058Z,0
2017-01-07T16:17:17.778Z,0
2017-01-07T16:18:28.475Z,0
2017-01-07T16:19:39.200Z,0
2017-01-07T16:20:49.941Z,0
2017-01-07T16:22:00.665Z,0
2017-01-07T16:23:11.390Z,0
2017-01-07T16:24:22.122Z,0
2017-01-07T16:25:32.833Z,0
2017-01-07T16:26:43.574Z,0
2017-01-07T16:27:54.295Z,0
2017-01-07T16:29:05.014Z,0
2017-01-07T16:30:15.739Z,0
2017-01-07T16:31:26.460Z,0
2017-01-07T16:32:37.180Z,0
2017-01-07T16:33:47.916Z,0